sensor_id;sensor_type;location;lat;lon;timestamp;temperature;humidity
19945;DHT22;10134;50.952;6.930;2023-01-19T00:00:57;2.70;99.90
19945;DHT22;10134;50.952;6.930;2023-01-19T00:03:25;2.70;99.90
19945;DHT22;10134;50.952;6.930;2023-01-19T00:05:52;2.70;99.90
19945;DHT22;10134;50.952;6.930;2023-01-19T00:08:20;2.70;99.90
19945;DHT22;10134;50.952;6.930;2023-01-19T00:10:49;2.70;99.90
19945;DHT22;10134;50.952;6.930;2023-01-19T00:13:19;2.70;99.90
19945;DHT22;10134;50.952;6.930;2023-01-19T00:15:46;2.70;99.90
19945;DHT22;10134;50.952;6.930;2023-01-19T00:18:14;2.70;99.90
19945;DHT22;10134;50.952;6.930;2023-01-19T00:20:43;2.70;99.90
19945;DHT22;10134;50.952;6.930;2023-01-19T00:23:11;2.70;99.90
19945;DHT22;10134;50.952;6.930;2023-01-19T00:25:38;2.70;99.90
19945;DHT22;10134;50.952;6.930;2023-01-19T00:28:13;2.70;99.90
19945;DHT22;10134;50.952;6.930;2023-01-19T00:30:41;2.80;99.90
19945;DHT22;10134;50.952;6.930;2023-01-19T00:33:10;2.80;99.90
19945;DHT22;10134;50.952;6.930;2023-01-19T00:35:40;2.80;99.90
19945;DHT22;10134;50.952;6.930;2023-01-19T00:38:10;2.80;99.90
19945;DHT22;10134;50.952;6.930;2023-01-19T00:40:37;2.80;99.90
19945;DHT22;10134;50.952;6.930;2023-01-19T00:43:05;2.80;99.90
19945;DHT22;10134;50.952;6.930;2023-01-19T00:45:32;2.80;99.90
19945;DHT22;10134;50.952;6.930;2023-01-19T00:47:59;2.80;99.90
19945;DHT22;10134;50.952;6.930;2023-01-19T00:50:28;2.90;99.90
19945;DHT22;10134;50.952;6.930;2023-01-19T00:52:57;2.90;99.90
19945;DHT22;10134;50.952;6.930;2023-01-19T00:55:28;2.90;99.90
19945;DHT22;10134;50.952;6.930;2023-01-19T00:57:56;2.90;99.90
19945;DHT22;10134;50.952;6.930;2023-01-19T01:00:24;2.90;99.90
19945;DHT22;10134;50.952;6.930;2023-01-19T01:02:52;2.90;99.90
19945;DHT22;10134;50.952;6.930;2023-01-19T01:05:21;2.90;99.90
19945;DHT22;10134;50.952;6.930;2023-01-19T01:07:48;2.90;99.90
19945;DHT22;10134;50.952;6.930;2023-01-19T01:10:22;2.90;99.90
19945;DHT22;10134;50.952;6.930;2023-01-19T01:12:50;3.00;99.90
19945;DHT22;10134;50.952;6.930;2023-01-19T01:15:26;3.00;99.90
19945;DHT22;10134;50.952;6.930;2023-01-19T01:17:54;3.00;99.90
19945;DHT22;10134;50.952;6.930;2023-01-19T01:20:25;2.90;99.90
19945;DHT22;10134;50.952;6.930;2023-01-19T01:22:55;2.90;99.90
19945;DHT22;10134;50.952;6.930;2023-01-19T01:25:23;2.90;99.90
19945;DHT22;10134;50.952;6.930;2023-01-19T01:27:51;2.90;99.90
19945;DHT22;10134;50.952;6.930;2023-01-19T01:30:19;2.90;99.90
19945;DHT22;10134;50.952;6.930;2023-01-19T01:32:47;2.90;99.90
19945;DHT22;10134;50.952;6.930;2023-01-19T01:35:15;2.90;99.90
19945;DHT22;10134;50.952;6.930;2023-01-19T01:37:42;2.90;99.90
19945;DHT22;10134;50.952;6.930;2023-01-19T01:40:15;2.90;99.90
19945;DHT22;10134;50.952;6.930;2023-01-19T01:42:42;2.80;99.90
19945;DHT22;10134;50.952;6.930;2023-01-19T01:47:51;2.90;99.90
19945;DHT22;10134;50.952;6.930;2023-01-19T01:50:24;2.90;99.90
19945;DHT22;10134;50.952;6.930;2023-01-19T01:53:00;3.00;99.90
19945;DHT22;10134;50.952;6.930;2023-01-19T01:55:45;3.00;99.90
19945;DHT22;10134;50.952;6.930;2023-01-19T01:58:15;3.10;99.90
19945;DHT22;10134;50.952;6.930;2023-01-19T02:00:42;3.10;99.90
19945;DHT22;10134;50.952;6.930;2023-01-19T02:03:29;3.10;99.90
19945;DHT22;10134;50.952;6.930;2023-01-19T02:06:00;3.00;99.90
19945;DHT22;10134;50.952;6.930;2023-01-19T02:08:43;3.00;99.90
19945;DHT22;10134;50.952;6.930;2023-01-19T02:11:31;3.00;99.90
19945;DHT22;10134;50.952;6.930;2023-01-19T02:14:17;3.00;99.90
19945;DHT22;10134;50.952;6.930;2023-01-19T02:16:47;3.00;99.90
19945;DHT22;10134;50.952;6.930;2023-01-19T02:19:37;3.00;99.90
19945;DHT22;10134;50.952;6.930;2023-01-19T02:22:32;3.00;99.90
19945;DHT22;10134;50.952;6.930;2023-01-19T02:25:05;3.00;99.90
19945;DHT22;10134;50.952;6.930;2023-01-19T02:27:33;3.00;99.90
19945;DHT22;10134;50.952;6.930;2023-01-19T02:30:01;3.00;99.90
19945;DHT22;10134;50.952;6.930;2023-01-19T02:32:29;3.00;99.90
19945;DHT22;10134;50.952;6.930;2023-01-19T02:34:57;3.00;99.90
19945;DHT22;10134;50.952;6.930;2023-01-19T02:37:25;3.00;99.90
19945;DHT22;10134;50.952;6.930;2023-01-19T02:39:56;3.00;99.90
19945;DHT22;10134;50.952;6.930;2023-01-19T02:42:31;3.00;99.90
19945;DHT22;10134;50.952;6.930;2023-01-19T02:45:02;3.00;99.90
19945;DHT22;10134;50.952;6.930;2023-01-19T02:47:38;3.00;99.90
19945;DHT22;10134;50.952;6.930;2023-01-19T02:50:47;2.90;99.90
19945;DHT22;10134;50.952;6.930;2023-01-19T02:56:37;2.90;99.90
19945;DHT22;10134;50.952;6.930;2023-01-19T02:58:46;2.90;99.90
19945;DHT22;10134;50.952;6.930;2023-01-19T03:01:22;2.90;99.90
19945;DHT22;10134;50.952;6.930;2023-01-19T03:04:22;2.90;99.90
19945;DHT22;10134;50.952;6.930;2023-01-19T03:07:01;2.90;99.90
19945;DHT22;10134;50.952;6.930;2023-01-19T03:12:46;3.00;99.90
19945;DHT22;10134;50.952;6.930;2023-01-19T03:15:28;2.90;99.90
19945;DHT22;10134;50.952;6.930;2023-01-19T03:17:59;3.00;99.90
19945;DHT22;10134;50.952;6.930;2023-01-19T03:20:26;2.90;99.90
19945;DHT22;10134;50.952;6.930;2023-01-19T03:23:00;2.90;99.90
19945;DHT22;10134;50.952;6.930;2023-01-19T03:25:30;2.90;99.90
19945;DHT22;10134;50.952;6.930;2023-01-19T03:28:00;3.00;99.90
19945;DHT22;10134;50.952;6.930;2023-01-19T03:30:32;2.90;99.90
19945;DHT22;10134;50.952;6.930;2023-01-19T03:33:10;3.00;99.90
19945;DHT22;10134;50.952;6.930;2023-01-19T03:35:43;3.00;99.90
19945;DHT22;10134;50.952;6.930;2023-01-19T03:38:14;3.00;99.90
19945;DHT22;10134;50.952;6.930;2023-01-19T03:40:43;3.00;99.90
19945;DHT22;10134;50.952;6.930;2023-01-19T03:43:13;2.90;99.90
19945;DHT22;10134;50.952;6.930;2023-01-19T03:45:42;3.00;99.90
19945;DHT22;10134;50.952;6.930;2023-01-19T03:48:10;3.00;99.90
19945;DHT22;10134;50.952;6.930;2023-01-19T03:50:38;3.00;99.90
19945;DHT22;10134;50.952;6.930;2023-01-19T03:53:09;3.10;99.90
19945;DHT22;10134;50.952;6.930;2023-01-19T03:55:39;3.10;99.90
19945;DHT22;10134;50.952;6.930;2023-01-19T03:58:07;3.20;99.90
19945;DHT22;10134;50.952;6.930;2023-01-19T04:00:34;3.20;99.90
19945;DHT22;10134;50.952;6.930;2023-01-19T04:03:03;3.20;99.90
19945;DHT22;10134;50.952;6.930;2023-01-19T04:05:31;3.30;99.90
19945;DHT22;10134;50.952;6.930;2023-01-19T04:07:59;3.30;99.90
19945;DHT22;10134;50.952;6.930;2023-01-19T04:10:26;3.30;99.90
19945;DHT22;10134;50.952;6.930;2023-01-19T04:12:58;3.30;99.90
19945;DHT22;10134;50.952;6.930;2023-01-19T04:15:27;3.30;99.90
19945;DHT22;10134;50.952;6.930;2023-01-19T04:17:59;3.30;99.90
19945;DHT22;10134;50.952;6.930;2023-01-19T04:20:27;3.30;99.90
19945;DHT22;10134;50.952;6.930;2023-01-19T04:22:58;3.30;99.90
19945;DHT22;10134;50.952;6.930;2023-01-19T04:25:27;3.30;99.90
19945;DHT22;10134;50.952;6.930;2023-01-19T04:27:54;3.40;99.90
19945;DHT22;10134;50.952;6.930;2023-01-19T04:30:25;3.40;99.90
19945;DHT22;10134;50.952;6.930;2023-01-19T04:32:52;3.40;99.90
19945;DHT22;10134;50.952;6.930;2023-01-19T04:35:21;3.40;99.90
19945;DHT22;10134;50.952;6.930;2023-01-19T04:37:48;3.40;99.90
19945;DHT22;10134;50.952;6.930;2023-01-19T04:40:16;3.40;99.90
19945;DHT22;10134;50.952;6.930;2023-01-19T04:42:44;3.50;99.90
19945;DHT22;10134;50.952;6.930;2023-01-19T04:45:12;3.50;99.90
19945;DHT22;10134;50.952;6.930;2023-01-19T04:47:40;3.50;99.90
19945;DHT22;10134;50.952;6.930;2023-01-19T04:50:10;3.60;99.90
19945;DHT22;10134;50.952;6.930;2023-01-19T04:52:37;3.60;99.90
19945;DHT22;10134;50.952;6.930;2023-01-19T04:55:05;3.60;99.90
19945;DHT22;10134;50.952;6.930;2023-01-19T04:57:33;3.60;99.90
19945;DHT22;10134;50.952;6.930;2023-01-19T05:00:01;3.60;99.90
19945;DHT22;10134;50.952;6.930;2023-01-19T05:02:29;3.60;99.90
19945;DHT22;10134;50.952;6.930;2023-01-19T05:04:56;3.70;99.90
19945;DHT22;10134;50.952;6.930;2023-01-19T05:07:23;3.70;99.90
19945;DHT22;10134;50.952;6.930;2023-01-19T05:09:51;3.70;99.90
19945;DHT22;10134;50.952;6.930;2023-01-19T05:12:19;3.70;99.90
19945;DHT22;10134;50.952;6.930;2023-01-19T05:14:46;3.70;99.90
19945;DHT22;10134;50.952;6.930;2023-01-19T05:17:13;3.70;99.90
19945;DHT22;10134;50.952;6.930;2023-01-19T05:19:41;3.70;99.90
19945;DHT22;10134;50.952;6.930;2023-01-19T05:22:08;3.70;99.90
19945;DHT22;10134;50.952;6.930;2023-01-19T05:24:35;3.80;99.90
19945;DHT22;10134;50.952;6.930;2023-01-19T05:27:02;3.80;99.90
19945;DHT22;10134;50.952;6.930;2023-01-19T05:29:30;3.80;99.90
19945;DHT22;10134;50.952;6.930;2023-01-19T05:31:57;3.90;99.90
19945;DHT22;10134;50.952;6.930;2023-01-19T05:34:24;3.80;99.90
19945;DHT22;10134;50.952;6.930;2023-01-19T05:36:52;3.80;99.90
19945;DHT22;10134;50.952;6.930;2023-01-19T05:39:19;3.80;99.90
19945;DHT22;10134;50.952;6.930;2023-01-19T05:41:47;3.80;99.90
19945;DHT22;10134;50.952;6.930;2023-01-19T05:44:14;3.80;99.90
19945;DHT22;10134;50.952;6.930;2023-01-19T05:46:41;3.70;99.90
19945;DHT22;10134;50.952;6.930;2023-01-19T05:49:10;3.70;99.90
19945;DHT22;10134;50.952;6.930;2023-01-19T05:51:37;3.60;99.90
19945;DHT22;10134;50.952;6.930;2023-01-19T05:54:05;3.60;99.90
19945;DHT22;10134;50.952;6.930;2023-01-19T05:56:33;3.60;99.90
19945;DHT22;10134;50.952;6.930;2023-01-19T05:59:01;3.60;99.90
19945;DHT22;10134;50.952;6.930;2023-01-19T06:01:29;3.50;99.90
19945;DHT22;10134;50.952;6.930;2023-01-19T06:03:56;3.50;99.90
19945;DHT22;10134;50.952;6.930;2023-01-19T06:06:23;3.50;99.90
19945;DHT22;10134;50.952;6.930;2023-01-19T06:08:50;3.50;99.90
19945;DHT22;10134;50.952;6.930;2023-01-19T06:11:17;3.50;99.90
19945;DHT22;10134;50.952;6.930;2023-01-19T06:13:45;3.40;99.90
19945;DHT22;10134;50.952;6.930;2023-01-19T06:16:13;3.40;99.90
19945;DHT22;10134;50.952;6.930;2023-01-19T06:18:40;3.40;99.90
19945;DHT22;10134;50.952;6.930;2023-01-19T06:21:09;3.30;99.90
19945;DHT22;10134;50.952;6.930;2023-01-19T06:23:38;3.30;99.90
19945;DHT22;10134;50.952;6.930;2023-01-19T06:26:05;3.30;99.90
19945;DHT22;10134;50.952;6.930;2023-01-19T06:28:32;3.20;99.90
19945;DHT22;10134;50.952;6.930;2023-01-19T06:31:00;3.20;99.90
19945;DHT22;10134;50.952;6.930;2023-01-19T06:33:27;3.20;99.90
19945;DHT22;10134;50.952;6.930;2023-01-19T06:35:55;3.20;99.90
19945;DHT22;10134;50.952;6.930;2023-01-19T06:38:22;3.10;99.90
19945;DHT22;10134;50.952;6.930;2023-01-19T06:40:55;3.10;99.90
19945;DHT22;10134;50.952;6.930;2023-01-19T06:43:25;3.10;99.90
19945;DHT22;10134;50.952;6.930;2023-01-19T06:45:52;3.10;99.90
19945;DHT22;10134;50.952;6.930;2023-01-19T06:48:20;3.10;99.90
19945;DHT22;10134;50.952;6.930;2023-01-19T06:50:47;3.10;99.90
19945;DHT22;10134;50.952;6.930;2023-01-19T06:53:16;3.10;99.90
19945;DHT22;10134;50.952;6.930;2023-01-19T06:55:43;3.10;99.90
19945;DHT22;10134;50.952;6.930;2023-01-19T06:58:11;3.10;99.90
19945;DHT22;10134;50.952;6.930;2023-01-19T07:00:38;3.10;99.90
19945;DHT22;10134;50.952;6.930;2023-01-19T07:03:06;3.10;99.90
19945;DHT22;10134;50.952;6.930;2023-01-19T07:05:34;3.10;99.90
19945;DHT22;10134;50.952;6.930;2023-01-19T07:08:02;3.10;99.90
19945;DHT22;10134;50.952;6.930;2023-01-19T07:10:30;3.10;99.90
19945;DHT22;10134;50.952;6.930;2023-01-19T07:13:17;3.00;99.90
19945;DHT22;10134;50.952;6.930;2023-01-19T07:15:45;3.10;99.90
19945;DHT22;10134;50.952;6.930;2023-01-19T07:18:12;3.00;99.90
19945;DHT22;10134;50.952;6.930;2023-01-19T07:20:39;3.00;99.90
19945;DHT22;10134;50.952;6.930;2023-01-19T07:23:06;3.00;99.90
19945;DHT22;10134;50.952;6.930;2023-01-19T07:25:34;3.00;99.90
19945;DHT22;10134;50.952;6.930;2023-01-19T07:28:02;3.00;99.90
19945;DHT22;10134;50.952;6.930;2023-01-19T07:30:30;3.00;99.90
19945;DHT22;10134;50.952;6.930;2023-01-19T07:32:57;3.00;99.90
19945;DHT22;10134;50.952;6.930;2023-01-19T07:35:25;3.10;99.90
19945;DHT22;10134;50.952;6.930;2023-01-19T07:37:53;3.10;99.90
19945;DHT22;10134;50.952;6.930;2023-01-19T07:40:20;3.10;99.90
19945;DHT22;10134;50.952;6.930;2023-01-19T07:42:50;3.10;99.90
19945;DHT22;10134;50.952;6.930;2023-01-19T07:45:19;3.10;99.90
19945;DHT22;10134;50.952;6.930;2023-01-19T07:47:47;3.10;99.90
19945;DHT22;10134;50.952;6.930;2023-01-19T07:50:16;3.10;99.90
19945;DHT22;10134;50.952;6.930;2023-01-19T07:52:47;3.10;99.90
19945;DHT22;10134;50.952;6.930;2023-01-19T07:55:19;3.10;99.90
19945;DHT22;10134;50.952;6.930;2023-01-19T07:57:48;3.20;99.90
19945;DHT22;10134;50.952;6.930;2023-01-19T08:00:18;3.20;99.90
19945;DHT22;10134;50.952;6.930;2023-01-19T08:02:48;3.20;99.90
19945;DHT22;10134;50.952;6.930;2023-01-19T08:05:18;3.20;99.90
19945;DHT22;10134;50.952;6.930;2023-01-19T08:07:46;3.20;99.90
19945;DHT22;10134;50.952;6.930;2023-01-19T08:10:15;3.20;99.90
19945;DHT22;10134;50.952;6.930;2023-01-19T08:12:43;3.20;99.90
19945;DHT22;10134;50.952;6.930;2023-01-19T08:15:12;3.20;99.90
19945;DHT22;10134;50.952;6.930;2023-01-19T08:17:40;3.20;99.90
19945;DHT22;10134;50.952;6.930;2023-01-19T08:20:08;3.30;99.90
19945;DHT22;10134;50.952;6.930;2023-01-19T08:22:36;3.30;99.90
19945;DHT22;10134;50.952;6.930;2023-01-19T08:25:06;3.30;99.90
19945;DHT22;10134;50.952;6.930;2023-01-19T08:27:33;3.30;99.90
19945;DHT22;10134;50.952;6.930;2023-01-19T08:30:01;3.30;99.90
19945;DHT22;10134;50.952;6.930;2023-01-19T08:32:28;3.30;99.90
19945;DHT22;10134;50.952;6.930;2023-01-19T08:34:56;3.30;99.90
19945;DHT22;10134;50.952;6.930;2023-01-19T08:37:23;3.30;99.90
19945;DHT22;10134;50.952;6.930;2023-01-19T08:39:50;3.40;99.90
19945;DHT22;10134;50.952;6.930;2023-01-19T08:42:19;3.40;99.90
19945;DHT22;10134;50.952;6.930;2023-01-19T08:44:47;3.40;99.90
19945;DHT22;10134;50.952;6.930;2023-01-19T08:47:24;3.50;99.90
19945;DHT22;10134;50.952;6.930;2023-01-19T08:49:51;3.50;99.90
19945;DHT22;10134;50.952;6.930;2023-01-19T08:52:18;3.50;99.90
19945;DHT22;10134;50.952;6.930;2023-01-19T08:54:46;3.60;99.90
19945;DHT22;10134;50.952;6.930;2023-01-19T08:57:13;3.60;99.90
19945;DHT22;10134;50.952;6.930;2023-01-19T08:59:41;3.60;99.90
19945;DHT22;10134;50.952;6.930;2023-01-19T09:02:09;3.60;99.90
19945;DHT22;10134;50.952;6.930;2023-01-19T09:04:37;3.70;99.90
19945;DHT22;10134;50.952;6.930;2023-01-19T09:07:04;3.70;99.90
19945;DHT22;10134;50.952;6.930;2023-01-19T09:09:36;3.70;99.90
19945;DHT22;10134;50.952;6.930;2023-01-19T09:12:06;3.70;99.90
19945;DHT22;10134;50.952;6.930;2023-01-19T09:14:33;3.70;99.90
19945;DHT22;10134;50.952;6.930;2023-01-19T09:17:01;3.70;99.90
19945;DHT22;10134;50.952;6.930;2023-01-19T09:19:28;3.80;99.90
19945;DHT22;10134;50.952;6.930;2023-01-19T09:21:56;3.80;99.90
19945;DHT22;10134;50.952;6.930;2023-01-19T09:24:25;3.80;99.90
19945;DHT22;10134;50.952;6.930;2023-01-19T09:26:52;3.80;99.90
19945;DHT22;10134;50.952;6.930;2023-01-19T09:29:19;3.90;99.90
19945;DHT22;10134;50.952;6.930;2023-01-19T09:31:47;4.00;99.90
19945;DHT22;10134;50.952;6.930;2023-01-19T09:34:15;4.00;99.90
19945;DHT22;10134;50.952;6.930;2023-01-19T09:36:42;4.00;99.90
19945;DHT22;10134;50.952;6.930;2023-01-19T09:39:09;4.00;99.90
19945;DHT22;10134;50.952;6.930;2023-01-19T09:41:38;4.10;99.90
19945;DHT22;10134;50.952;6.930;2023-01-19T09:44:15;4.10;99.90
19945;DHT22;10134;50.952;6.930;2023-01-19T09:46:43;4.10;99.90
19945;DHT22;10134;50.952;6.930;2023-01-19T09:50:42;4.10;99.90
19945;DHT22;10134;50.952;6.930;2023-01-19T09:52:41;4.20;99.90
19945;DHT22;10134;50.952;6.930;2023-01-19T09:55:19;4.20;99.90
19945;DHT22;10134;50.952;6.930;2023-01-19T09:57:48;4.20;99.90
19945;DHT22;10134;50.952;6.930;2023-01-19T10:00:17;4.20;99.90
19945;DHT22;10134;50.952;6.930;2023-01-19T10:05:45;4.20;99.90
19945;DHT22;10134;50.952;6.930;2023-01-19T10:08:40;4.20;99.90
19945;DHT22;10134;50.952;6.930;2023-01-19T10:11:19;4.20;99.90
19945;DHT22;10134;50.952;6.930;2023-01-19T10:13:49;4.10;99.90
19945;DHT22;10134;50.952;6.930;2023-01-19T10:16:27;4.10;99.90
19945;DHT22;10134;50.952;6.930;2023-01-19T10:19:19;4.10;99.90
19945;DHT22;10134;50.952;6.930;2023-01-19T10:21:49;4.10;99.90
19945;DHT22;10134;50.952;6.930;2023-01-19T10:24:24;4.10;99.90
19945;DHT22;10134;50.952;6.930;2023-01-19T10:26:55;4.10;99.90
19945;DHT22;10134;50.952;6.930;2023-01-19T10:29:36;4.10;99.90
19945;DHT22;10134;50.952;6.930;2023-01-19T10:32:07;4.10;99.90
19945;DHT22;10134;50.952;6.930;2023-01-19T10:34:35;4.10;99.90
19945;DHT22;10134;50.952;6.930;2023-01-19T10:37:11;4.10;99.90
19945;DHT22;10134;50.952;6.930;2023-01-19T10:39:44;4.10;99.90
19945;DHT22;10134;50.952;6.930;2023-01-19T10:42:14;4.10;99.90
19945;DHT22;10134;50.952;6.930;2023-01-19T10:44:44;4.10;99.90
19945;DHT22;10134;50.952;6.930;2023-01-19T10:47:20;4.20;99.90
19945;DHT22;10134;50.952;6.930;2023-01-19T10:49:49;4.20;99.90
19945;DHT22;10134;50.952;6.930;2023-01-19T10:52:28;4.20;99.90
19945;DHT22;10134;50.952;6.930;2023-01-19T10:54:57;4.20;99.90
19945;DHT22;10134;50.952;6.930;2023-01-19T10:57:31;4.30;99.90
19945;DHT22;10134;50.952;6.930;2023-01-19T11:00:03;4.30;99.90
19945;DHT22;10134;50.952;6.930;2023-01-19T11:02:31;4.30;99.90
19945;DHT22;10134;50.952;6.930;2023-01-19T11:05:20;4.40;99.90
19945;DHT22;10134;50.952;6.930;2023-01-19T11:07:48;4.40;99.90
19945;DHT22;10134;50.952;6.930;2023-01-19T11:13:00;4.50;99.90
19945;DHT22;10134;50.952;6.930;2023-01-19T11:15:32;4.50;99.90
19945;DHT22;10134;50.952;6.930;2023-01-19T11:18:01;4.50;99.90
19945;DHT22;10134;50.952;6.930;2023-01-19T11:20:51;4.60;99.90
19945;DHT22;10134;50.952;6.930;2023-01-19T11:23:28;4.60;99.90
19945;DHT22;10134;50.952;6.930;2023-01-19T11:26:00;4.60;99.90
19945;DHT22;10134;50.952;6.930;2023-01-19T11:28:35;4.70;99.90
19945;DHT22;10134;50.952;6.930;2023-01-19T11:33:48;4.80;99.90
19945;DHT22;10134;50.952;6.930;2023-01-19T11:36:25;4.80;99.90
19945;DHT22;10134;50.952;6.930;2023-01-19T11:38:59;4.80;99.90
19945;DHT22;10134;50.952;6.930;2023-01-19T11:43:59;4.80;99.90
19945;DHT22;10134;50.952;6.930;2023-01-19T11:46:32;4.80;99.90
19945;DHT22;10134;50.952;6.930;2023-01-19T11:49:20;4.90;99.90
19945;DHT22;10134;50.952;6.930;2023-01-19T11:52:12;4.90;99.90
19945;DHT22;10134;50.952;6.930;2023-01-19T11:54:55;4.90;99.90
19945;DHT22;10134;50.952;6.930;2023-01-19T11:57:28;5.00;99.90
19945;DHT22;10134;50.952;6.930;2023-01-19T11:59:55;5.00;99.90
19945;DHT22;10134;50.952;6.930;2023-01-19T12:02:31;5.10;99.90
19945;DHT22;10134;50.952;6.930;2023-01-19T12:05:13;5.10;99.90
19945;DHT22;10134;50.952;6.930;2023-01-19T12:07:43;5.20;99.90
19945;DHT22;10134;50.952;6.930;2023-01-19T12:10:21;5.30;99.90
19945;DHT22;10134;50.952;6.930;2023-01-19T12:12:50;5.30;99.90
19945;DHT22;10134;50.952;6.930;2023-01-19T12:15:36;5.40;99.90
19945;DHT22;10134;50.952;6.930;2023-01-19T12:18:06;5.50;99.90
19945;DHT22;10134;50.952;6.930;2023-01-19T12:20:40;5.60;99.90
19945;DHT22;10134;50.952;6.930;2023-01-19T12:25:46;5.80;99.90
19945;DHT22;10134;50.952;6.930;2023-01-19T12:28:30;5.90;99.90
19945;DHT22;10134;50.952;6.930;2023-01-19T12:31:00;5.90;99.90
19945;DHT22;10134;50.952;6.930;2023-01-19T12:38:50;5.90;99.90
19945;DHT22;10134;50.952;6.930;2023-01-19T12:41:29;6.00;99.90
19945;DHT22;10134;50.952;6.930;2023-01-19T12:44:18;6.00;99.90
19945;DHT22;10134;50.952;6.930;2023-01-19T12:46:53;6.10;99.90
19945;DHT22;10134;50.952;6.930;2023-01-19T12:49:34;6.10;99.90
19945;DHT22;10134;50.952;6.930;2023-01-19T12:55:05;6.20;99.90
19945;DHT22;10134;50.952;6.930;2023-01-19T12:57:55;6.20;99.90
19945;DHT22;10134;50.952;6.930;2023-01-19T13:10:51;6.20;99.90
19945;DHT22;10134;50.952;6.930;2023-01-19T13:15:49;6.10;99.90
19945;DHT22;10134;50.952;6.930;2023-01-19T13:18:25;6.00;99.90
19945;DHT22;10134;50.952;6.930;2023-01-19T13:21:01;6.00;99.90
19945;DHT22;10134;50.952;6.930;2023-01-19T13:26:23;6.00;99.90
19945;DHT22;10134;50.952;6.930;2023-01-19T13:28:56;6.00;99.90
19945;DHT22;10134;50.952;6.930;2023-01-19T13:31:24;6.00;99.90
19945;DHT22;10134;50.952;6.930;2023-01-19T13:33:58;6.10;99.90
19945;DHT22;10134;50.952;6.930;2023-01-19T13:38:57;6.10;99.90
19945;DHT22;10134;50.952;6.930;2023-01-19T13:41:29;6.00;99.90
19945;DHT22;10134;50.952;6.930;2023-01-19T13:44:24;6.00;99.90
19945;DHT22;10134;50.952;6.930;2023-01-19T13:46:53;5.90;99.90
19945;DHT22;10134;50.952;6.930;2023-01-19T13:49:29;5.90;99.90
19945;DHT22;10134;50.952;6.930;2023-01-19T13:52:28;5.90;99.90
19945;DHT22;10134;50.952;6.930;2023-01-19T13:54:58;5.90;99.90
19945;DHT22;10134;50.952;6.930;2023-01-19T13:57:30;5.90;99.90
19945;DHT22;10134;50.952;6.930;2023-01-19T14:11:00;6.10;99.90
19945;DHT22;10134;50.952;6.930;2023-01-19T14:13:34;6.20;99.90
19945;DHT22;10134;50.952;6.930;2023-01-19T14:16:07;6.20;99.90
19945;DHT22;10134;50.952;6.930;2023-01-19T14:18:38;6.20;99.90
19945;DHT22;10134;50.952;6.930;2023-01-19T14:21:11;6.20;99.90
19945;DHT22;10134;50.952;6.930;2023-01-19T14:23:51;6.20;99.90
19945;DHT22;10134;50.952;6.930;2023-01-19T14:26:51;6.10;99.90
19945;DHT22;10134;50.952;6.930;2023-01-19T14:29:26;6.00;99.90
19945;DHT22;10134;50.952;6.930;2023-01-19T14:32:13;5.90;99.90
19945;DHT22;10134;50.952;6.930;2023-01-19T14:34:48;5.90;99.90
19945;DHT22;10134;50.952;6.930;2023-01-19T14:37:18;5.80;99.90
19945;DHT22;10134;50.952;6.930;2023-01-19T14:42:37;5.70;99.90
19945;DHT22;10134;50.952;6.930;2023-01-19T14:45:14;5.70;99.90
19945;DHT22;10134;50.952;6.930;2023-01-19T14:47:43;5.70;99.90
19945;DHT22;10134;50.952;6.930;2023-01-19T14:50:31;5.70;99.90
19945;DHT22;10134;50.952;6.930;2023-01-19T14:55:35;5.60;99.90
19945;DHT22;10134;50.952;6.930;2023-01-19T14:58:11;5.60;99.90
19945;DHT22;10134;50.952;6.930;2023-01-19T15:00:40;5.60;99.90
19945;DHT22;10134;50.952;6.930;2023-01-19T15:03:09;5.70;99.90
19945;DHT22;10134;50.952;6.930;2023-01-19T15:05:41;5.70;99.90
19945;DHT22;10134;50.952;6.930;2023-01-19T15:08:32;5.70;99.90
19945;DHT22;10134;50.952;6.930;2023-01-19T15:11:09;5.80;99.90
19945;DHT22;10134;50.952;6.930;2023-01-19T15:13:41;5.70;99.90
19945;DHT22;10134;50.952;6.930;2023-01-19T15:16:09;5.70;99.90
19945;DHT22;10134;50.952;6.930;2023-01-19T15:18:37;5.70;99.90
19945;DHT22;10134;50.952;6.930;2023-01-19T15:21:05;5.70;99.90
19945;DHT22;10134;50.952;6.930;2023-01-19T15:23:32;5.70;99.90
19945;DHT22;10134;50.952;6.930;2023-01-19T15:26:02;5.70;99.90
19945;DHT22;10134;50.952;6.930;2023-01-19T15:28:30;5.70;99.90
19945;DHT22;10134;50.952;6.930;2023-01-19T15:30:58;5.60;99.90
19945;DHT22;10134;50.952;6.930;2023-01-19T15:33:28;5.60;99.90
19945;DHT22;10134;50.952;6.930;2023-01-19T15:35:58;5.60;99.90
19945;DHT22;10134;50.952;6.930;2023-01-19T15:38:26;5.60;99.90
19945;DHT22;10134;50.952;6.930;2023-01-19T15:40:54;5.50;99.90
19945;DHT22;10134;50.952;6.930;2023-01-19T15:43:21;5.50;99.90
19945;DHT22;10134;50.952;6.930;2023-01-19T15:45:53;5.50;99.90
19945;DHT22;10134;50.952;6.930;2023-01-19T15:48:23;5.40;99.90
19945;DHT22;10134;50.952;6.930;2023-01-19T15:50:51;5.40;99.90
19945;DHT22;10134;50.952;6.930;2023-01-19T15:53:20;5.40;99.90
19945;DHT22;10134;50.952;6.930;2023-01-19T15:55:51;5.40;99.90
19945;DHT22;10134;50.952;6.930;2023-01-19T15:58:19;5.30;99.90
19945;DHT22;10134;50.952;6.930;2023-01-19T16:00:55;5.40;99.90
19945;DHT22;10134;50.952;6.930;2023-01-19T16:03:24;5.30;99.90
19945;DHT22;10134;50.952;6.930;2023-01-19T16:05:52;5.30;99.90
19945;DHT22;10134;50.952;6.930;2023-01-19T16:08:19;5.30;99.90
19945;DHT22;10134;50.952;6.930;2023-01-19T16:10:48;5.30;99.90
19945;DHT22;10134;50.952;6.930;2023-01-19T16:13:15;5.30;99.90
19945;DHT22;10134;50.952;6.930;2023-01-19T16:15:42;5.30;99.90
19945;DHT22;10134;50.952;6.930;2023-01-19T16:18:10;5.20;99.90
19945;DHT22;10134;50.952;6.930;2023-01-19T16:20:37;5.30;99.90
19945;DHT22;10134;50.952;6.930;2023-01-19T16:23:05;5.30;99.90
19945;DHT22;10134;50.952;6.930;2023-01-19T16:25:55;5.20;99.90
19945;DHT22;10134;50.952;6.930;2023-01-19T16:28:24;5.30;99.90
19945;DHT22;10134;50.952;6.930;2023-01-19T16:30:52;5.20;99.90
19945;DHT22;10134;50.952;6.930;2023-01-19T16:33:19;5.20;99.90
19945;DHT22;10134;50.952;6.930;2023-01-19T16:35:46;5.20;99.90
19945;DHT22;10134;50.952;6.930;2023-01-19T16:38:14;5.20;99.90
19945;DHT22;10134;50.952;6.930;2023-01-19T16:40:45;5.10;99.90
19945;DHT22;10134;50.952;6.930;2023-01-19T16:43:13;5.10;99.90
19945;DHT22;10134;50.952;6.930;2023-01-19T16:45:59;5.10;99.90
19945;DHT22;10134;50.952;6.930;2023-01-19T16:48:27;5.10;99.90
19945;DHT22;10134;50.952;6.930;2023-01-19T16:51:05;5.10;99.90
19945;DHT22;10134;50.952;6.930;2023-01-19T16:53:33;5.00;99.90
19945;DHT22;10134;50.952;6.930;2023-01-19T16:56:09;5.00;99.90
19945;DHT22;10134;50.952;6.930;2023-01-19T16:58:36;5.00;99.90
19945;DHT22;10134;50.952;6.930;2023-01-19T17:01:13;5.00;99.90
19945;DHT22;10134;50.952;6.930;2023-01-19T17:03:41;5.00;99.90
19945;DHT22;10134;50.952;6.930;2023-01-19T17:06:10;5.00;99.90
19945;DHT22;10134;50.952;6.930;2023-01-19T17:08:38;5.00;99.90
19945;DHT22;10134;50.952;6.930;2023-01-19T17:11:21;5.00;99.90
19945;DHT22;10134;50.952;6.930;2023-01-19T17:13:53;5.00;99.90
19945;DHT22;10134;50.952;6.930;2023-01-19T17:16:22;5.00;99.90